Time;durP1;ratioP1;P1;durP2;ratioP2;P2;SDS_P1;SDS_P2;PMS_P1;PMS_P2;Temp;Humidity;BMP_temperature;BMP_pressure;BME280_temperature;BME280_humidity;BME280_pressure;Samples;Min_cycle;Max_cycle;Signal;HPM_P1;HPM_P2
2020/12/03 00:00:34;;;;;;;24.87;15.20;;;3.00;99.90;;;;;;5089346;28;20202;-53
2020/12/03 00:03:05;;;;;;;27.03;16.17;;;3.00;99.90;;;;;;5088329;28;20202;-54
2020/12/03 00:05:32;;;;;;;25.90;15.03;;;3.00;99.90;;;;;;5090658;28;20218;-54
2020/12/03 00:07:59;;;;;;;25.67;14.50;;;2.90;99.90;;;;;;5091335;28;20201;-56
2020/12/03 00:10:27;;;;;;;24.37;13.63;;;3.00;99.90;;;;;;5090109;28;20208;-55
2020/12/03 00:13:03;;;;;;;25.67;13.87;;;3.00;99.90;;;;;;5085612;28;20214;-57
2020/12/03 00:15:30;;;;;;;24.30;13.40;;;3.00;99.90;;;;;;5093850;28;20213;-52
2020/12/03 00:17:57;;;;;;;24.10;13.00;;;3.00;99.90;;;;;;5094819;28;20197;-51
2020/12/03 00:20:24;;;;;;;25.33;14.43;;;3.10;99.90;;;;;;5094309;28;20204;-56
2020/12/03 00:22:50;;;;;;;24.70;14.90;;;3.00;99.90;;;;;;5094597;28;20198;-57
2020/12/03 00:25:17;;;;;;;24.20;14.23;;;3.10;99.90;;;;;;5094436;28;20235;-55
2020/12/03 00:27:49;;;;;;;24.43;13.47;;;3.10;99.90;;;;;;5094338;28;20204;-52
2020/12/03 00:30:15;;;;;;;24.07;13.30;;;3.00;99.90;;;;;;5094343;28;20682;-50
2020/12/03 00:32:42;;;;;;;24.83;13.73;;;3.10;99.90;;;;;;5085850;28;20222;-55
2020/12/03 00:35:08;;;;;;;25.13;14.23;;;3.10;99.90;;;;;;5084470;28;20688;-53
2020/12/03 00:37:35;;;;;;;25.57;13.83;;;3.10;99.90;;;;;;5094214;28;20198;-54
2020/12/03 00:40:01;;;;;;;25.17;13.80;;;3.10;99.90;;;;;;5094775;28;20202;-61
2020/12/03 00:42:28;;;;;;;26.60;14.73;;;3.10;99.90;;;;;;5093840;28;20693;-50
2020/12/03 00:44:54;;;;;;;24.63;13.80;;;3.00;99.90;;;;;;5093946;28;20213;-53
2020/12/03 00:47:20;;;;;;;26.20;14.40;;;3.00;99.90;;;;;;5093824;28;20361;-54
2020/12/03 00:49:47;;;;;;;24.03;13.47;;;3.00;99.90;;;;;;5093776;28;20198;-50
2020/12/03 00:52:13;;;;;;;25.93;15.10;;;3.00;99.90;;;;;;5093466;28;20709;-53
2020/12/03 00:54:41;;;;;;;23.27;12.87;;;3.00;99.90;;;;;;5092155;28;20214;-50
2020/12/03 00:57:07;;;;;;;23.13;13.07;;;3.00;99.90;;;;;;5079103;28;20681;-51
2020/12/03 00:59:36;;;;;;;24.97;13.60;;;3.00;99.90;;;;;;5085232;28;20258;-53
2020/12/03 01:02:03;;;;;;;26.77;13.93;;;3.10;99.90;;;;;;5084862;28;20198;-53
2020/12/03 01:04:29;;;;;;;23.93;13.40;;;3.00;99.90;;;;;;5084230;28;20279;-50
2020/12/03 01:06:56;;;;;;;27.00;14.07;;;3.10;99.90;;;;;;5085697;28;20208;-53
2020/12/03 01:09:22;;;;;;;24.33;13.50;;;3.00;99.90;;;;;;5089064;28;20206;-52
2020/12/03 01:11:50;;;;;;;23.53;12.73;;;3.00;99.90;;;;;;5086602;28;20225;-54
2020/12/03 01:14:16;;;;;;;24.13;13.33;;;2.90;99.90;;;;;;5085485;28;20692;-54
2020/12/03 01:16:43;;;;;;;25.17;14.33;;;3.10;99.90;;;;;;5085510;28;20226;-53
2020/12/03 01:19:09;;;;;;;23.67;13.83;;;3.10;99.90;;;;;;5086474;28;20732;-52
2020/12/03 01:21:35;;;;;;;24.93;13.77;;;3.00;99.90;;;;;;5079436;28;20198;-53
2020/12/03 01:24:02;;;;;;;22.60;12.67;;;3.00;99.90;;;;;;5080137;28;20222;-53
2020/12/03 01:26:28;;;;;;;24.77;13.77;;;2.90;99.90;;;;;;5084941;28;20198;-50
2020/12/03 01:28:55;;;;;;;25.40;13.83;;;3.00;99.90;;;;;;5085362;28;20198;-52
2020/12/03 01:31:22;;;;;;;24.97;13.67;;;3.00;99.90;;;;;;5084532;28;20665;-53
2020/12/03 01:33:48;;;;;;;23.57;12.43;;;3.00;99.90;;;;;;5079381;28;20229;-54
2020/12/03 01:36:15;;;;;;;23.40;13.33;;;3.00;99.90;;;;;;5080366;28;20202;-50
2020/12/03 01:38:42;;;;;;;25.17;13.97;;;3.00;99.90;;;;;;5077205;28;20213;-56
2020/12/03 01:41:08;;;;;;;24.47;14.90;;;3.00;99.90;;;;;;5079091;28;20201;-54
2020/12/03 01:43:41;;;;;;;25.27;14.97;;;3.00;99.90;;;;;;5083627;28;20210;-53
2020/12/03 01:46:08;;;;;;;24.10;13.47;;;3.10;99.90;;;;;;5078065;28;20197;-50
2020/12/03 01:48:41;;;;;;;24.77;13.27;;;3.00;99.90;;;;;;5075827;28;20222;-54
2020/12/03 01:51:13;;;;;;;24.23;13.50;;;3.00;99.90;;;;;;5077210;28;20605;-50
2020/12/03 01:53:39;;;;;;;24.17;13.13;;;2.90;99.90;;;;;;5082053;28;20607;-55
2020/12/03 01:56:19;;;;;;;24.90;13.37;;;2.90;99.90;;;;;;5084269;28;20202;-54
2020/12/03 01:58:46;;;;;;;24.43;14.37;;;3.00;99.90;;;;;;5079214;28;20213;-57
2020/12/03 02:01:14;;;;;;;24.60;13.87;;;3.00;99.90;;;;;;5085527;28;20209;-52
2020/12/03 02:03:46;;;;;;;25.07;15.00;;;3.00;99.90;;;;;;5088227;28;20200;-50
2020/12/03 02:06:18;;;;;;;23.87;13.23;;;2.90;99.90;;;;;;5081977;28;20251;-50
2020/12/03 02:08:44;;;;;;;22.60;12.27;;;3.00;99.90;;;;;;5083075;28;20221;-55
2020/12/03 02:11:11;;;;;;;22.10;12.47;;;2.90;99.90;;;;;;5082790;28;20206;-55
2020/12/03 02:13:37;;;;;;;21.83;11.93;;;3.00;99.90;;;;;;5080502;28;20220;-53
2020/12/03 02:16:04;;;;;;;20.27;11.93;;;2.90;99.90;;;;;;5083706;28;20197;-52
2020/12/03 02:18:31;;;;;;;22.53;12.00;;;3.00;99.90;;;;;;5082974;28;20591;-54
2020/12/03 02:20:58;;;;;;;24.23;13.33;;;3.00;99.90;;;;;;5080233;28;20202;-50
2020/12/03 02:23:25;;;;;;;21.50;12.07;;;3.10;99.90;;;;;;5082526;28;20200;-50
2020/12/03 02:25:51;;;;;;;23.23;13.00;;;3.10;99.90;;;;;;5086079;28;20710;-50
2020/12/03 02:28:17;;;;;;;21.73;12.40;;;3.00;99.90;;;;;;5080082;28;20204;-53
2020/12/03 02:30:44;;;;;;;22.53;12.53;;;2.90;99.90;;;;;;5080352;28;20206;-50
2020/12/03 02:33:10;;;;;;;22.13;13.13;;;2.90;99.90;;;;;;5083110;28;20222;-55
2020/12/03 02:35:36;;;;;;;23.20;13.17;;;3.00;99.90;;;;;;5076375;28;20229;-59
2020/12/03 02:38:03;;;;;;;22.80;14.13;;;3.00;99.90;;;;;;5078938;28;20205;-53
2020/12/03 02:40:30;;;;;;;26.20;14.97;;;3.00;99.90;;;;;;5079661;28;20197;-50
2020/12/03 02:42:56;;;;;;;24.17;14.60;;;3.00;99.90;;;;;;5079071;28;20202;-59
2020/12/03 02:45:22;;;;;;;22.23;12.20;;;2.90;99.90;;;;;;5087906;28;20226;-55
2020/12/03 02:47:48;;;;;;;22.53;12.53;;;2.90;99.90;;;;;;5079436;28;20656;-56
2020/12/03 02:50:15;;;;;;;22.93;12.10;;;2.90;99.90;;;;;;5077373;28;20206;-55
2020/12/03 02:52:41;;;;;;;22.93;13.40;;;2.90;99.90;;;;;;5084414;28;20715;-53
2020/12/03 02:55:09;;;;;;;22.80;13.20;;;2.90;99.90;;;;;;5088062;28;20220;-53
2020/12/03 02:57:35;;;;;;;25.30;16.70;;;2.90;99.90;;;;;;5089381;28;20197;-52
2020/12/03 03:00:01;;;;;;;25.73;16.50;;;2.90;99.90;;;;;;5087357;28;20232;-50
2020/12/03 03:02:28;;;;;;;25.53;14.70;;;2.90;99.90;;;;;;5084256;28;20208;-52
2020/12/03 03:04:54;;;;;;;21.13;12.00;;;2.90;99.90;;;;;;5090339;28;20222;-55
2020/12/03 03:07:21;;;;;;;22.83;13.17;;;2.90;99.90;;;;;;5090447;28;20312;-56
2020/12/03 03:09:47;;;;;;;21.83;12.87;;;2.90;99.90;;;;;;5090314;28;20199;-53
2020/12/03 03:12:15;;;;;;;23.40;13.30;;;3.00;99.90;;;;;;5091147;28;20708;-53
2020/12/03 03:14:41;;;;;;;22.20;12.77;;;3.00;99.90;;;;;;5091074;28;20217;-54
2020/12/03 03:17:07;;;;;;;22.43;12.07;;;3.00;99.90;;;;;;5091213;28;20205;-56
2020/12/03 03:19:34;;;;;;;23.37;12.10;;;2.90;99.90;;;;;;5086787;28;20202;-53
2020/12/03 03:22:00;;;;;;;21.40;11.90;;;3.00;99.90;;;;;;5079846;28;20206;-56
2020/12/03 03:24:26;;;;;;;21.87;12.30;;;3.00;99.90;;;;;;5090877;28;20225;-53
2020/12/03 03:26:53;;;;;;;21.90;11.57;;;3.00;99.90;;;;;;5084443;28;20383;-56
2020/12/03 03:29:20;;;;;;;20.57;11.50;;;3.10;99.90;;;;;;5087137;28;20198;-54
2020/12/03 03:31:46;;;;;;;22.70;11.53;;;3.10;99.90;;;;;;5090560;28;20221;-50
2020/12/03 03:34:13;;;;;;;21.20;12.00;;;2.90;99.90;;;;;;5087165;28;20214;-50
2020/12/03 03:36:39;;;;;;;24.00;13.40;;;3.00;99.90;;;;;;5091082;28;20198;-57
2020/12/03 03:39:07;;;;;;;21.17;12.10;;;3.00;99.90;;;;;;5088674;28;20209;-56
2020/12/03 03:41:34;;;;;;;24.00;12.73;;;3.00;99.90;;;;;;5090348;28;20204;-50
2020/12/03 03:44:00;;;;;;;23.60;12.80;;;3.00;99.90;;;;;;5084963;28;20221;-54
2020/12/03 03:46:27;;;;;;;22.63;12.70;;;3.00;99.90;;;;;;5091550;28;20205;-53
2020/12/03 03:48:53;;;;;;;21.40;12.10;;;3.00;99.90;;;;;;5090158;28;20204;-50
2020/12/03 03:51:19;;;;;;;23.43;12.93;;;3.00;99.90;;;;;;5081596;28;20198;-54
2020/12/03 03:53:46;;;;;;;23.50;12.50;;;3.00;99.90;;;;;;5092461;28;20726;-53
2020/12/03 03:56:12;;;;;;;23.23;12.60;;;3.00;99.90;;;;;;5090395;28;20201;-53
2020/12/03 03:58:38;;;;;;;23.53;13.20;;;3.00;99.90;;;;;;5092857;28;20255;-57
2020/12/03 04:01:05;;;;;;;23.63;13.50;;;3.10;99.90;;;;;;5091570;28;20210;-53
2020/12/03 04:03:32;;;;;;;25.00;15.07;;;3.10;99.90;;;;;;5092707;28;20197;-55
2020/12/03 04:05:58;;;;;;;23.80;14.37;;;2.90;99.90;;;;;;5092640;28;20197;-53
2020/12/03 04:08:27;;;;;;;22.67;12.90;;;3.10;99.90;;;;;;5079763;28;20198;-52
2020/12/03 04:10:53;;;;;;;23.73;13.20;;;3.00;99.90;;;;;;5093087;28;20284;-51
2020/12/03 04:13:21;;;;;;;19.20;10.87;;;3.10;99.90;;;;;;5085913;28;20221;-50
2020/12/03 04:15:48;;;;;;;21.43;12.27;;;3.10;99.90;;;;;;5094772;28;20228;-53
2020/12/03 04:18:14;;;;;;;22.03;12.53;;;3.10;99.90;;;;;;5091130;28;20209;-52
2020/12/03 04:20:42;;;;;;;23.93;11.47;;;3.20;99.90;;;;;;5093832;28;20362;-50
2020/12/03 04:23:09;;;;;;;22.30;12.10;;;3.10;99.90;;;;;;5094281;28;20208;-53
2020/12/03 04:25:35;;;;;;;22.93;12.43;;;3.20;99.90;;;;;;5094378;28;20225;-54
2020/12/03 04:28:02;;;;;;;23.53;12.77;;;3.20;99.90;;;;;;5095004;28;20211;-52
2020/12/03 04:30:28;;;;;;;22.00;13.50;;;3.10;99.90;;;;;;5094373;28;20600;-54
2020/12/03 04:32:54;;;;;;;26.23;15.13;;;3.00;99.90;;;;;;5094667;28;20218;-55
2020/12/03 04:35:21;;;;;;;22.63;12.43;;;3.00;99.90;;;;;;5093933;28;20228;-57
2020/12/03 04:37:49;;;;;;;22.50;12.07;;;3.00;99.90;;;;;;5093830;28;20198;-55
2020/12/03 04:40:25;;;;;;;21.20;12.10;;;3.10;99.90;;;;;;5094094;28;20200;-55
2020/12/03 04:42:52;;;;;;;21.00;11.90;;;3.00;99.90;;;;;;5090296;28;20344;-55
2020/12/03 04:45:39;;;;;;;23.77;13.10;;;3.00;99.90;;;;;;5090827;28;20267;-52
2020/12/03 04:48:44;;;;;;;24.07;13.17;;;3.00;99.90;;;;;;5086799;28;20202;-53
2020/12/03 04:51:31;;;;;;;23.67;13.53;;;3.00;99.90;;;;;;5091106;28;20190;-56
2020/12/03 04:54:17;;;;;;;28.97;16.47;;;3.10;99.90;;;;;;5080410;28;20223;-53
2020/12/03 04:56:52;;;;;;;25.00;15.17;;;3.10;99.90;;;;;;5089091;28;20563;-56
2020/12/03 04:59:29;;;;;;;24.10;13.83;;;3.10;99.90;;;;;;5085396;28;20561;-51
2020/12/03 05:02:17;;;;;;;24.13;12.30;;;3.10;99.90;;;;;;5082737;28;20201;-54
2020/12/03 05:04:53;;;;;;;23.43;13.00;;;3.10;99.90;;;;;;5079112;28;20222;-52
2020/12/03 05:07:23;;;;;;;23.90;13.07;;;3.10;99.90;;;;;;5088537;28;20209;-50
2020/12/03 05:09:59;;;;;;;27.40;13.27;;;3.20;99.90;;;;;;5086744;28;20203;-52
2020/12/03 05:12:30;;;;;;;23.63;13.17;;;3.20;99.90;;;;;;5083864;28;20225;-51
2020/12/03 05:15:05;;;;;;;23.07;12.63;;;3.10;99.90;;;;;;5090406;28;20278;-52
2020/12/03 05:17:47;;;;;;;21.37;12.13;;;3.50;99.90;;;;;;5084751;28;20254;-52
2020/12/03 05:20:21;;;;;;;22.60;11.93;;;3.20;99.90;;;;;;5077998;28;20193;-55
2020/12/03 05:22:55;;;;;;;22.73;12.30;;;3.20;99.90;;;;;;5092113;28;20197;-55
2020/12/03 05:25:24;;;;;;;23.87;12.87;;;3.30;99.90;;;;;;5100848;22;20259;-59
2020/12/03 05:27:53;;;;;;;22.40;12.43;;;3.30;99.90;;;;;;5051981;28;20195;-56
2020/12/03 05:30:22;;;;;;;23.17;13.00;;;3.30;99.90;;;;;;5053209;28;20203;-61
2020/12/03 05:32:49;;;;;;;23.33;12.83;;;3.30;99.90;;;;;;5047937;28;20318;-60
2020/12/03 05:35:15;;;;;;;26.13;13.40;;;3.30;99.90;;;;;;5053592;28;20207;-60
2020/12/03 05:37:43;;;;;;;24.87;13.00;;;3.30;99.90;;;;;;5052621;28;20407;-59
2020/12/03 05:40:20;;;;;;;24.03;13.17;;;3.20;99.90;;;;;;5053273;28;20209;-56
2020/12/03 05:42:49;;;;;;;24.90;13.23;;;3.20;99.90;;;;;;5050180;28;20197;-59
2020/12/03 05:45:20;;;;;;;24.87;13.53;;;3.30;99.90;;;;;;5051244;28;20199;-59
2020/12/03 05:47:50;;;;;;;22.33;12.23;;;3.30;99.90;;;;;;5050378;28;20203;-57
2020/12/03 05:50:36;;;;;;;23.90;12.70;;;3.30;99.90;;;;;;5052232;28;20285;-58
2020/12/03 05:53:05;;;;;;;23.73;12.50;;;3.20;99.90;;;;;;5052456;28;20227;-60
2020/12/03 05:55:33;;;;;;;27.17;14.57;;;3.20;99.90;;;;;;5051809;28;20218;-55
2020/12/03 05:58:15;;;;;;;23.97;13.83;;;3.20;99.90;;;;;;5052562;28;20203;-57
2020/12/03 06:00:41;;;;;;;24.57;13.40;;;3.20;99.90;;;;;;5048287;28;20202;-57
2020/12/03 06:03:26;;;;;;;24.50;14.07;;;3.30;99.90;;;;;;5052517;28;20306;-59
2020/12/03 06:06:19;;;;;;;24.37;12.73;;;3.30;99.90;;;;;;5048159;28;20230;-59
2020/12/03 06:09:03;;;;;;;24.33;12.60;;;3.40;99.90;;;;;;5049358;28;20578;-59
2020/12/03 06:11:42;;;;;;;26.57;13.97;;;3.30;99.90;;;;;;5046116;28;20669;-55
2020/12/03 06:14:59;;;;;;;22.67;13.23;;;3.30;99.90;;;;;;5050484;28;20226;-58
2020/12/03 06:17:42;;;;;;;24.47;13.10;;;3.30;99.90;;;;;;5049473;28;20219;-61
2020/12/03 06:20:24;;;;;;;26.10;13.77;;;3.30;99.90;;;;;;5052526;28;20210;-58
2020/12/03 06:23:11;;;;;;;26.43;13.67;;;3.30;99.90;;;;;;5051404;28;20194;-57
2020/12/03 06:25:45;;;;;;;28.03;15.23;;;3.30;99.90;;;;;;5048718;28;20227;-59
2020/12/03 06:28:32;;;;;;;30.10;15.67;;;3.30;99.90;;;;;;5049481;28;20683;-57
2020/12/03 06:31:09;;;;;;;25.27;13.67;;;3.30;99.90;;;;;;5051936;28;20582;-55
2020/12/03 06:33:40;;;;;;;25.10;14.07;;;3.30;99.90;;;;;;5046230;28;20222;-59
2020/12/03 06:36:19;;;;;;;29.03;15.60;;;3.30;99.90;;;;;;5051762;28;20237;-59
2020/12/03 06:39:10;;;;;;;27.63;15.50;;;3.20;99.90;;;;;;5051697;28;20199;-57
2020/12/03 06:41:47;;;;;;;27.53;14.20;;;3.30;99.90;;;;;;5051422;28;20199;-59
2020/12/03 06:44:21;;;;;;;27.33;15.03;;;3.20;99.90;;;;;;5047979;28;20210;-60
2020/12/03 06:47:33;;;;;;;28.60;14.27;;;3.30;99.90;;;;;;5050403;28;20705;-60
2020/12/03 06:50:24;;;;;;;27.57;15.10;;;3.30;99.90;;;;;;5046635;28;20599;-58
2020/12/03 06:53:33;;;;;;;30.33;16.63;;;3.20;99.90;;;;;;5048587;28;20222;-54
2020/12/03 06:56:35;;;;;;;30.30;16.60;;;3.20;99.90;;;;;;5050164;28;20421;-60
2020/12/03 06:59:34;;;;;;;30.70;17.27;;;3.20;99.90;;;;;;5045729;28;20202;-59
2020/12/03 07:02:34;;;;;;;35.57;23.20;;;3.30;99.90;;;;;;5048696;28;20199;-60
2020/12/03 07:05:26;;;;;;;30.70;17.70;;;3.30;99.90;;;;;;5050154;28;20712;-60
2020/12/03 07:08:31;;;;;;;28.80;15.60;;;3.30;99.90;;;;;;5051107;28;20207;-60
2020/12/03 07:11:25;;;;;;;29.10;14.63;;;3.30;99.90;;;;;;5051083;28;20198;-61
2020/12/03 07:14:43;;;;;;;29.90;15.00;;;3.30;99.90;;;;;;5041605;28;20219;-56
2020/12/03 07:17:51;;;;;;;27.70;14.73;;;3.20;99.90;;;;;;5045589;28;20240;-57
2020/12/03 07:20:47;;;;;;;29.87;15.07;;;3.30;99.90;;;;;;5050869;28;20199;-57
2020/12/03 07:23:23;;;;;;;27.97;13.97;;;3.30;99.90;;;;;;5047524;28;20202;-54
2020/12/03 07:25:50;;;;;;;25.97;14.63;;;3.20;99.90;;;;;;5048025;28;20317;-55
2020/12/03 07:28:23;;;;;;;27.93;15.53;;;3.30;99.90;;;;;;5050349;28;20226;-58
2020/12/03 07:30:54;;;;;;;30.93;16.17;;;3.30;99.90;;;;;;5050687;28;20215;-58
2020/12/03 07:33:32;;;;;;;27.80;14.40;;;3.30;99.90;;;;;;5051012;28;20234;-54
2020/12/03 07:36:27;;;;;;;27.80;15.40;;;3.30;99.90;;;;;;5049339;28;20225;-56
2020/12/03 07:38:58;;;;;;;27.70;15.17;;;3.30;99.90;;;;;;5048840;28;20203;-57
2020/12/03 07:41:28;;;;;;;27.77;15.10;;;3.30;99.90;;;;;;5050626;28;20553;-58
2020/12/03 07:44:06;;;;;;;28.13;15.43;;;3.30;99.90;;;;;;5050669;28;20221;-59
2020/12/03 07:46:37;;;;;;;26.10;14.57;;;3.30;99.90;;;;;;5044417;28;20223;-55
2020/12/03 07:49:05;;;;;;;27.57;14.47;;;3.30;99.90;;;;;;5049825;28;20560;-55
2020/12/03 07:51:33;;;;;;;28.03;14.50;;;3.40;99.90;;;;;;5050284;28;20227;-57
2020/12/03 07:54:23;;;;;;;27.87;14.67;;;3.40;99.90;;;;;;5050483;28;20238;-57
2020/12/03 07:56:50;;;;;;;25.17;13.33;;;3.50;99.90;;;;;;5049033;28;20219;-56
2020/12/03 07:59:37;;;;;;;25.33;13.93;;;3.40;99.90;;;;;;5050673;28;20757;-54
2020/12/03 08:02:24;;;;;;;27.37;14.13;;;3.40;99.90;;;;;;5049986;28;20651;-56
2020/12/03 08:04:50;;;;;;;27.47;15.60;;;3.40;99.90;;;;;;5050237;28;20264;-56
2020/12/03 08:07:31;;;;;;;26.43;14.37;;;3.40;99.90;;;;;;5050555;28;20720;-54
2020/12/03 08:09:57;;;;;;;25.77;13.50;;;3.50;99.90;;;;;;5050006;28;20198;-56
2020/12/03 08:12:26;;;;;;;27.63;14.47;;;3.50;99.90;;;;;;5050435;28;20226;-56
2020/12/03 08:14:54;;;;;;;28.87;16.00;;;3.50;99.90;;;;;;5049802;28;20203;-56
2020/12/03 08:17:45;;;;;;;29.97;18.20;;;3.60;99.90;;;;;;5050911;28;20322;-55
2020/12/03 08:20:23;;;;;;;27.97;15.67;;;3.50;99.90;;;;;;5045013;28;20199;-60
2020/12/03 08:22:53;;;;;;;26.10;14.37;;;3.60;99.90;;;;;;5050748;28;20276;-59
2020/12/03 08:25:23;;;;;;;28.60;15.93;;;3.60;99.90;;;;;;5048862;28;20242;-55
2020/12/03 08:27:52;;;;;;;27.67;16.40;;;3.70;99.90;;;;;;5050559;28;20569;-57
2020/12/03 08:30:37;;;;;;;26.60;14.87;;;3.80;99.90;;;;;;5050157;28;20662;-56
2020/12/03 08:33:12;;;;;;;27.90;15.07;;;3.70;99.90;;;;;;5050206;28;20227;-57
2020/12/03 08:35:40;;;;;;;24.80;13.27;;;3.80;99.90;;;;;;5051924;28;20261;-57
2020/12/03 08:38:07;;;;;;;23.63;13.47;;;3.80;99.90;;;;;;5050064;28;20203;-56
2020/12/03 08:40:36;;;;;;;24.13;13.67;;;3.80;99.90;;;;;;5053731;28;20576;-57
2020/12/03 08:43:06;;;;;;;24.07;13.03;;;3.80;99.90;;;;;;5053913;28;20610;-57
2020/12/03 08:45:41;;;;;;;22.77;12.73;;;3.90;99.90;;;;;;5053409;28;20242;-58
2020/12/03 08:48:12;;;;;;;23.40;13.50;;;4.00;99.90;;;;;;5051883;28;20233;-54
2020/12/03 08:50:39;;;;;;;25.83;14.33;;;3.90;99.90;;;;;;5053979;28;20214;-55
2020/12/03 08:53:10;;;;;;;24.77;13.23;;;4.00;99.90;;;;;;5052594;28;20223;-54
2020/12/03 08:55:40;;;;;;;24.47;13.60;;;3.90;99.90;;;;;;5053164;28;20229;-59
2020/12/03 08:58:09;;;;;;;25.83;14.43;;;4.00;99.90;;;;;;5051307;28;20563;-57
2020/12/03 09:00:41;;;;;;;24.97;12.87;;;4.10;99.90;;;;;;5053622;28;20692;-57
2020/12/03 09:03:13;;;;;;;23.37;12.93;;;4.20;99.90;;;;;;5053647;28;20198;-59
2020/12/03 09:05:42;;;;;;;26.30;14.23;;;4.20;99.90;;;;;;5053430;28;20677;-58
2020/12/03 09:08:12;;;;;;;23.63;13.03;;;4.20;99.90;;;;;;5053688;28;20218;-59
2020/12/03 09:10:38;;;;;;;22.93;12.70;;;4.20;99.90;;;;;;5052409;28;20295;-58
2020/12/03 09:13:06;;;;;;;23.97;13.10;;;4.20;99.90;;;;;;5053378;28;20234;-59
2020/12/03 09:15:33;;;;;;;22.40;12.90;;;4.30;99.90;;;;;;5053229;28;20246;-54
2020/12/03 09:18:01;;;;;;;24.60;13.27;;;4.30;99.90;;;;;;5052622;28;20647;-58
2020/12/03 09:20:28;;;;;;;22.43;12.27;;;4.30;99.90;;;;;;5052779;28;20256;-56
2020/12/03 09:22:54;;;;;;;21.57;11.93;;;4.30;99.90;;;;;;5053237;28;20198;-56
2020/12/03 09:25:21;;;;;;;23.77;12.27;;;4.40;99.90;;;;;;5052136;28;20225;-54
2020/12/03 09:27:49;;;;;;;22.83;12.03;;;4.40;99.90;;;;;;5052669;28;20199;-58
2020/12/03 09:30:20;;;;;;;23.30;12.33;;;4.40;99.90;;;;;;5052538;28;20214;-58
2020/12/03 09:32:51;;;;;;;24.93;13.70;;;4.40;99.90;;;;;;5052929;28;20226;-60
2020/12/03 09:35:19;;;;;;;23.27;12.10;;;4.40;99.90;;;;;;5052191;28;20209;-56
2020/12/03 09:37:46;;;;;;;24.10;12.40;;;4.40;99.90;;;;;;5052413;28;20657;-58
2020/12/03 09:40:15;;;;;;;23.77;12.33;;;4.40;99.90;;;;;;5052430;28;20574;-58
2020/12/03 09:42:45;;;;;;;24.67;13.43;;;4.40;99.90;;;;;;5052537;28;20211;-55
2020/12/03 09:45:19;;;;;;;24.97;13.60;;;4.40;99.90;;;;;;5050915;28;20226;-60
2020/12/03 09:47:46;;;;;;;23.20;12.20;;;4.40;99.90;;;;;;5050746;28;20209;-59
2020/12/03 09:50:14;;;;;;;24.17;12.27;;;4.40;99.90;;;;;;5052585;28;20230;-57
2020/12/03 09:52:42;;;;;;;24.77;13.00;;;4.50;99.90;;;;;;5052763;28;20219;-55
2020/12/03 09:55:14;;;;;;;23.03;11.80;;;4.50;99.90;;;;;;5051207;28;20323;-55
2020/12/03 09:57:45;;;;;;;22.77;12.00;;;4.50;99.90;;;;;;5052303;28;20204;-54
2020/12/03 10:00:15;;;;;;;22.67;11.83;;;4.50;99.90;;;;;;5052098;28;20203;-57
2020/12/03 10:03:23;;;;;;;20.93;10.97;;;4.60;99.90;;;;;;5046336;28;20195;-57
2020/12/03 10:06:01;;;;;;;23.93;12.90;;;4.60;99.90;;;;;;5052107;28;20234;-60
2020/12/03 10:08:55;;;;;;;23.17;11.53;;;4.60;99.90;;;;;;5052344;28;20253;-59
2020/12/03 10:11:58;;;;;;;20.33;10.97;;;4.70;99.90;;;;;;5051554;28;20670;-55
2020/12/03 10:14:48;;;;;;;22.80;12.00;;;4.60;99.90;;;;;;5047249;28;20230;-57
2020/12/03 10:17:16;;;;;;;22.23;11.77;;;4.70;99.90;;;;;;5050911;28;20218;-57
2020/12/03 10:19:44;;;;;;;23.50;12.40;;;4.70;99.90;;;;;;5052249;28;20195;-58
2020/12/03 10:22:19;;;;;;;22.43;12.13;;;4.60;99.90;;;;;;5051959;28;20203;-58
2020/12/03 10:24:51;;;;;;;22.03;12.00;;;4.70;99.90;;;;;;5051901;28;20210;-59
2020/12/03 10:27:24;;;;;;;25.30;12.83;;;4.80;99.90;;;;;;5051231;28;20706;-57
2020/12/03 10:29:58;;;;;;;20.77;10.97;;;4.80;99.90;;;;;;5046085;28;20206;-59
2020/12/03 10:32:25;;;;;;;20.33;10.80;;;4.80;99.90;;;;;;5050914;28;20202;-58
2020/12/03 10:34:52;;;;;;;22.93;11.70;;;4.60;99.90;;;;;;5050649;28;20203;-58
2020/12/03 10:37:32;;;;;;;21.93;11.03;;;4.60;99.90;;;;;;5052058;28;20219;-59
2020/12/03 10:40:03;;;;;;;22.93;10.63;;;4.70;99.90;;;;;;5051591;28;20229;-58
2020/12/03 10:42:37;;;;;;;21.90;11.47;;;4.70;99.90;;;;;;5051639;28;20286;-59
2020/12/03 10:45:08;;;;;;;21.80;11.73;;;4.70;99.90;;;;;;5051137;28;20209;-59
2020/12/03 10:47:46;;;;;;;21.70;11.93;;;4.80;99.90;;;;;;5051623;28;20576;-59
2020/12/03 10:50:16;;;;;;;20.10;10.63;;;4.80;99.90;;;;;;5051326;28;20296;-53
2020/12/03 10:52:43;;;;;;;21.80;11.23;;;4.80;99.90;;;;;;5051432;28;20227;-59
2020/12/03 10:55:10;;;;;;;21.93;11.97;;;4.60;99.90;;;;;;5048522;28;20207;-59
2020/12/03 10:57:44;;;;;;;20.93;11.13;;;4.70;99.90;;;;;;5050288;28;20669;-54
2020/12/03 11:00:11;;;;;;;22.00;11.90;;;4.60;99.90;;;;;;5049292;28;20203;-58
2020/12/03 11:02:41;;;;;;;23.40;11.87;;;4.60;99.90;;;;;;5051434;28;20210;-60
2020/12/03 11:05:09;;;;;;;22.00;12.03;;;4.60;99.90;;;;;;5050117;28;20207;-59
2020/12/03 11:07:36;;;;;;;21.87;11.70;;;4.80;99.90;;;;;;5051405;28;20199;-55
2020/12/03 11:10:02;;;;;;;24.47;12.17;;;4.60;99.90;;;;;;5050452;28;20215;-61
2020/12/03 11:12:30;;;;;;;24.33;13.00;;;4.60;99.90;;;;;;5051033;28;20206;-60
2020/12/03 11:15:01;;;;;;;22.20;11.80;;;4.70;99.90;;;;;;5049722;28;20632;-59
2020/12/03 11:17:48;;;;;;;21.23;11.47;;;4.80;99.90;;;;;;5050307;28;20717;-57
2020/12/03 11:20:16;;;;;;;20.73;10.93;;;4.70;99.90;;;;;;5050419;28;20205;-58
2020/12/03 11:23:01;;;;;;;22.03;10.60;;;4.70;99.90;;;;;;5050917;28;20293;-55
2020/12/03 11:25:28;;;;;;;21.10;10.97;;;4.80;99.90;;;;;;5050848;28;20219;-58
2020/12/03 11:27:59;;;;;;;23.00;11.60;;;4.70;99.90;;;;;;5050850;28;20213;-58
2020/12/03 11:30:28;;;;;;;20.23;10.77;;;4.80;99.90;;;;;;5051006;28;20207;-59
2020/12/03 11:32:56;;;;;;;21.53;11.63;;;4.70;99.90;;;;;;5044763;28;20597;-60
2020/12/03 11:35:24;;;;;;;21.33;11.27;;;4.70;99.90;;;;;;5051133;28;20592;-58
2020/12/03 11:37:52;;;;;;;23.03;11.13;;;4.80;99.90;;;;;;5044712;28;20213;-59
2020/12/03 11:40:27;;;;;;;21.93;11.13;;;4.80;99.90;;;;;;5046626;28;20207;-56
2020/12/03 11:43:02;;;;;;;24.50;13.33;;;4.80;99.90;;;;;;5048920;28;20209;-56
2020/12/03 11:48:33;;;;;;;20.87;10.93;;;4.80;99.90;;;;;;5050696;28;20276;-56
2020/12/03 11:50:59;;;;;;;21.20;11.23;;;4.80;99.90;;;;;;5049986;28;20286;-59
2020/12/03 11:53:26;;;;;;;21.20;11.17;;;4.70;99.90;;;;;;5050740;28;20242;-57
2020/12/03 11:55:53;;;;;;;21.37;10.57;;;4.50;99.90;;;;;;5050152;28;20250;-56
2020/12/03 11:58:26;;;;;;;22.53;11.90;;;4.60;99.90;;;;;;5050242;28;20210;-58
2020/12/03 12:01:12;;;;;;;21.17;11.17;;;4.70;99.90;;;;;;5049970;28;20678;-60
2020/12/03 12:03:41;;;;;;;23.80;12.10;;;4.70;99.90;;;;;;5047523;28;20240;-57
2020/12/03 12:06:14;;;;;;;22.87;10.97;;;4.70;99.90;;;;;;5050836;28;20227;-57
2020/12/03 12:08:44;;;;;;;21.77;10.67;;;4.90;99.90;;;;;;5047895;28;20203;-59
2020/12/03 12:11:15;;;;;;;20.13;10.77;;;4.80;99.90;;;;;;5053317;28;20207;-58
2020/12/03 12:13:41;;;;;;;22.13;11.63;;;4.80;99.90;;;;;;5053972;28;20211;-59
2020/12/03 12:16:12;;;;;;;21.17;11.10;;;4.70;99.90;;;;;;5054658;28;20226;-57
2020/12/03 12:18:39;;;;;;;21.27;11.20;;;4.70;99.90;;;;;;5054042;28;20650;-54
2020/12/03 12:21:07;;;;;;;23.90;11.83;;;4.70;99.90;;;;;;5054730;28;20214;-58
2020/12/03 12:23:33;;;;;;;23.43;11.47;;;4.90;99.90;;;;;;5053944;28;20628;-57
2020/12/03 12:25:59;;;;;;;19.27;10.60;;;4.80;99.90;;;;;;5054217;28;20241;-57
2020/12/03 12:28:25;;;;;;;21.37;11.90;;;4.60;99.90;;;;;;5054243;28;20195;-58
2020/12/03 12:30:52;;;;;;;22.67;11.80;;;4.70;99.90;;;;;;5053996;28;20673;-60
2020/12/03 12:33:19;;;;;;;24.20;12.67;;;4.70;99.90;;;;;;5054660;28;20237;-59
2020/12/03 12:35:45;;;;;;;21.20;11.47;;;4.70;99.90;;;;;;5053981;28;20225;-61
2020/12/03 12:38:12;;;;;;;21.60;11.27;;;4.70;99.90;;;;;;5054568;28;20692;-59
2020/12/03 12:40:38;;;;;;;20.27;11.47;;;4.60;99.90;;;;;;5053788;28;20230;-59
2020/12/03 12:43:05;;;;;;;22.90;12.00;;;4.60;99.90;;;;;;5054139;28;20203;-59
2020/12/03 12:45:31;;;;;;;23.27;11.27;;;4.50;99.90;;;;;;5053756;28;21072;-59
2020/12/03 12:47:57;;;;;;;24.03;11.77;;;4.60;99.90;;;;;;5054425;28;20199;-57
2020/12/03 12:50:25;;;;;;;22.53;10.90;;;4.50;99.90;;;;;;5053927;28;20207;-58
2020/12/03 12:52:51;;;;;;;23.80;12.00;;;4.50;99.90;;;;;;5050579;28;20260;-56
2020/12/03 12:55:17;;;;;;;22.50;11.30;;;4.50;99.90;;;;;;5053821;28;20207;-55
2020/12/03 12:57:44;;;;;;;22.47;10.97;;;4.50;99.90;;;;;;5052610;28;20666;-57
2020/12/03 13:00:10;;;;;;;22.37;10.80;;;4.50;99.90;;;;;;5052928;28;20219;-57
2020/12/03 13:02:36;;;;;;;21.17;10.57;;;4.40;99.90;;;;;;5052897;28;20591;-58